sensor_id;sensor_type;location;lat;lon;timestamp;P1;durP1;ratioP1;P2;durP2;ratioP2
70967;SDS011;58629;48.808;8.820;2022-08-03T00:02:18;1.70;;;1.60;;
70967;SDS011;58629;48.808;8.820;2022-08-03T00:04:43;1.73;;;1.50;;
70967;SDS011;58629;48.808;8.820;2022-08-03T00:07:08;1.40;;;1.30;;
70967;SDS011;58629;48.808;8.820;2022-08-03T00:09:34;1.60;;;1.50;;
70967;SDS011;58629;48.808;8.820;2022-08-03T00:11:59;2.07;;;1.87;;
70967;SDS011;58629;48.808;8.820;2022-08-03T00:14:24;2.30;;;2.10;;
70967;SDS011;58629;48.808;8.820;2022-08-03T00:16:49;2.33;;;1.80;;
70967;SDS011;58629;48.808;8.820;2022-08-03T00:19:14;1.63;;;1.53;;
70967;SDS011;58629;48.808;8.820;2022-08-03T00:21:40;1.67;;;1.40;;
70967;SDS011;58629;48.808;8.820;2022-08-03T00:24:05;1.20;;;1.10;;
70967;SDS011;58629;48.808;8.820;2022-08-03T00:26:30;1.30;;;1.20;;
70967;SDS011;58629;48.808;8.820;2022-08-03T00:28:56;2.40;;;1.83;;
70967;SDS011;58629;48.808;8.820;2022-08-03T00:31:21;1.60;;;1.50;;
70967;SDS011;58629;48.808;8.820;2022-08-03T00:33:46;1.67;;;1.57;;
70967;SDS011;58629;48.808;8.820;2022-08-03T00:36:12;1.40;;;1.30;;
70967;SDS011;58629;48.808;8.820;2022-08-03T00:38:37;1.80;;;1.70;;
70967;SDS011;58629;48.808;8.820;2022-08-03T00:41:02;2.00;;;1.80;;
70967;SDS011;58629;48.808;8.820;2022-08-03T00:43:27;3.17;;;2.27;;
70967;SDS011;58629;48.808;8.820;2022-08-03T00:45:53;1.53;;;1.43;;
70967;SDS011;58629;48.808;8.820;2022-08-03T00:48:19;1.40;;;1.30;;
70967;SDS011;58629;48.808;8.820;2022-08-03T00:50:44;1.70;;;1.60;;
70967;SDS011;58629;48.808;8.820;2022-08-03T00:53:10;1.63;;;1.50;;
70967;SDS011;58629;48.808;8.820;2022-08-03T00:55:36;2.22;;;2.03;;
70967;SDS011;58629;48.808;8.820;2022-08-03T00:58:02;2.60;;;2.40;;
70967;SDS011;58629;48.808;8.820;2022-08-03T01:00:31;1.45;;;1.35;;
70967;SDS011;58629;48.808;8.820;2022-08-03T01:02:57;1.30;;;1.20;;
70967;SDS011;58629;48.808;8.820;2022-08-03T01:05:22;1.60;;;1.50;;
70967;SDS011;58629;48.808;8.820;2022-08-03T01:08:05;1.40;;;1.30;;
70967;SDS011;58629;48.808;8.820;2022-08-03T01:16:00;1.30;;;1.20;;
70967;SDS011;58629;48.808;8.820;2022-08-03T01:21:04;1.65;;;1.55;;
70967;SDS011;58629;48.808;8.820;2022-08-03T01:23:40;1.60;;;1.50;;
70967;SDS011;58629;48.808;8.820;2022-08-03T01:29:10;2.88;;;2.30;;
70967;SDS011;58629;48.808;8.820;2022-08-03T01:31:52;2.10;;;1.90;;
70967;SDS011;58629;48.808;8.820;2022-08-03T01:34:40;2.00;;;1.65;;
70967;SDS011;58629;48.808;8.820;2022-08-03T01:37:10;1.67;;;1.58;;
70967;SDS011;58629;48.808;8.820;2022-08-03T01:39:40;2.30;;;2.10;;
70967;SDS011;58629;48.808;8.820;2022-08-03T01:42:06;1.58;;;1.48;;
70967;SDS011;58629;48.808;8.820;2022-08-03T01:44:39;1.73;;;1.50;;
70967;SDS011;58629;48.808;8.820;2022-08-03T01:47:06;1.60;;;1.50;;
70967;SDS011;58629;48.808;8.820;2022-08-03T01:49:36;1.70;;;1.60;;
70967;SDS011;58629;48.808;8.820;2022-08-03T01:52:03;2.05;;;1.80;;
70967;SDS011;58629;48.808;8.820;2022-08-03T01:54:31;1.55;;;1.45;;
70967;SDS011;58629;48.808;8.820;2022-08-03T01:57:00;2.20;;;2.00;;
70967;SDS011;58629;48.808;8.820;2022-08-03T01:59:27;2.08;;;1.88;;
70967;SDS011;58629;48.808;8.820;2022-08-03T02:01:54;1.40;;;1.30;;
70967;SDS011;58629;48.808;8.820;2022-08-03T02:04:21;2.17;;;1.67;;
70967;SDS011;58629;48.808;8.820;2022-08-03T02:06:49;1.40;;;1.30;;
70967;SDS011;58629;48.808;8.820;2022-08-03T02:09:16;1.40;;;1.30;;
70967;SDS011;58629;48.808;8.820;2022-08-03T02:11:44;1.90;;;1.70;;
70967;SDS011;58629;48.808;8.820;2022-08-03T02:14:11;1.75;;;1.65;;
70967;SDS011;58629;48.808;8.820;2022-08-03T02:16:38;1.50;;;1.40;;
70967;SDS011;58629;48.808;8.820;2022-08-03T02:19:04;1.63;;;1.50;;
70967;SDS011;58629;48.808;8.820;2022-08-03T02:21:31;2.28;;;2.00;;
70967;SDS011;58629;48.808;8.820;2022-08-03T02:23:59;2.08;;;1.88;;
70967;SDS011;58629;48.808;8.820;2022-08-03T02:26:25;2.10;;;1.83;;
70967;SDS011;58629;48.808;8.820;2022-08-03T02:28:54;1.67;;;1.50;;
70967;SDS011;58629;48.808;8.820;2022-08-03T02:31:22;2.35;;;2.00;;
70967;SDS011;58629;48.808;8.820;2022-08-03T02:33:52;1.85;;;1.73;;
70967;SDS011;58629;48.808;8.820;2022-08-03T02:36:21;3.75;;;3.28;;
70967;SDS011;58629;48.808;8.820;2022-08-03T02:38:51;2.90;;;2.30;;
70967;SDS011;58629;48.808;8.820;2022-08-03T02:41:20;2.10;;;1.90;;
70967;SDS011;58629;48.808;8.820;2022-08-03T02:43:48;2.20;;;2.00;;
70967;SDS011;58629;48.808;8.820;2022-08-03T02:46:19;2.00;;;1.80;;
70967;SDS011;58629;48.808;8.820;2022-08-03T02:48:46;2.05;;;1.88;;
70967;SDS011;58629;48.808;8.820;2022-08-03T02:51:12;1.83;;;1.73;;
70967;SDS011;58629;48.808;8.820;2022-08-03T02:53:40;1.75;;;1.60;;
70967;SDS011;58629;48.808;8.820;2022-08-03T02:56:09;1.70;;;1.60;;
70967;SDS011;58629;48.808;8.820;2022-08-03T02:58:35;1.88;;;1.70;;
70967;SDS011;58629;48.808;8.820;2022-08-03T03:01:03;1.70;;;1.60;;
70967;SDS011;58629;48.808;8.820;2022-08-03T03:03:29;1.20;;;1.10;;
70967;SDS011;58629;48.808;8.820;2022-08-03T03:05:54;2.00;;;1.80;;
70967;SDS011;58629;48.808;8.820;2022-08-03T03:08:20;1.70;;;1.50;;
70967;SDS011;58629;48.808;8.820;2022-08-03T03:10:47;1.80;;;1.50;;
70967;SDS011;58629;48.808;8.820;2022-08-03T03:13:14;1.80;;;1.70;;
70967;SDS011;58629;48.808;8.820;2022-08-03T03:15:39;1.63;;;1.52;;
70967;SDS011;58629;48.808;8.820;2022-08-03T03:18:07;1.98;;;1.83;;
70967;SDS011;58629;48.808;8.820;2022-08-03T03:20:34;1.30;;;1.20;;
70967;SDS011;58629;48.808;8.820;2022-08-03T03:23:01;1.38;;;1.27;;
70967;SDS011;58629;48.808;8.820;2022-08-03T03:25:31;1.33;;;1.17;;
70967;SDS011;58629;48.808;8.820;2022-08-03T03:27:58;1.80;;;1.70;;
70967;SDS011;58629;48.808;8.820;2022-08-03T03:30:24;1.70;;;1.60;;
70967;SDS011;58629;48.808;8.820;2022-08-03T03:32:50;1.73;;;1.63;;
70967;SDS011;58629;48.808;8.820;2022-08-03T03:35:15;1.60;;;1.50;;
70967;SDS011;58629;48.808;8.820;2022-08-03T03:37:41;1.40;;;1.30;;
70967;SDS011;58629;48.808;8.820;2022-08-03T03:40:07;1.70;;;1.60;;
70967;SDS011;58629;48.808;8.820;2022-08-03T03:42:33;2.20;;;1.97;;
70967;SDS011;58629;48.808;8.820;2022-08-03T03:44:58;2.30;;;2.08;;
70967;SDS011;58629;48.808;8.820;2022-08-03T03:47:27;1.70;;;1.60;;
70967;SDS011;58629;48.808;8.820;2022-08-03T03:49:53;3.17;;;2.50;;
70967;SDS011;58629;48.808;8.820;2022-08-03T03:52:19;2.30;;;2.10;;
70967;SDS011;58629;48.808;8.820;2022-08-03T03:54:44;2.33;;;2.13;;
70967;SDS011;58629;48.808;8.820;2022-08-03T03:57:09;2.00;;;1.80;;
70967;SDS011;58629;48.808;8.820;2022-08-03T03:59:39;1.70;;;1.60;;
70967;SDS011;58629;48.808;8.820;2022-08-03T04:02:05;1.70;;;1.60;;
70967;SDS011;58629;48.808;8.820;2022-08-03T04:04:32;1.40;;;1.30;;
70967;SDS011;58629;48.808;8.820;2022-08-03T04:07:17;1.90;;;1.70;;
70967;SDS011;58629;48.808;8.820;2022-08-03T04:10:02;1.50;;;1.40;;
70967;SDS011;58629;48.808;8.820;2022-08-03T04:12:53;1.33;;;1.23;;
70967;SDS011;58629;48.808;8.820;2022-08-03T04:15:21;1.35;;;1.25;;
70967;SDS011;58629;48.808;8.820;2022-08-03T04:17:48;1.65;;;1.40;;
70967;SDS011;58629;48.808;8.820;2022-08-03T04:20:17;1.33;;;1.20;;
70967;SDS011;58629;48.808;8.820;2022-08-03T04:22:45;2.08;;;1.63;;
70967;SDS011;58629;48.808;8.820;2022-08-03T04:25:13;1.70;;;1.60;;
70967;SDS011;58629;48.808;8.820;2022-08-03T04:27:43;2.08;;;1.83;;
70967;SDS011;58629;48.808;8.820;2022-08-03T04:30:10;2.13;;;1.50;;
70967;SDS011;58629;48.808;8.820;2022-08-03T04:32:36;1.80;;;1.40;;
70967;SDS011;58629;48.808;8.820;2022-08-03T04:35:03;3.78;;;2.10;;
70967;SDS011;58629;48.808;8.820;2022-08-03T04:40:12;2.28;;;1.70;;
70967;SDS011;58629;48.808;8.820;2022-08-03T04:42:39;2.38;;;2.05;;
70967;SDS011;58629;48.808;8.820;2022-08-03T04:45:06;2.58;;;2.35;;
70967;SDS011;58629;48.808;8.820;2022-08-03T04:47:35;2.00;;;1.80;;
70967;SDS011;58629;48.808;8.820;2022-08-03T04:50:03;2.00;;;1.80;;
70967;SDS011;58629;48.808;8.820;2022-08-03T04:52:29;1.73;;;1.60;;
70967;SDS011;58629;48.808;8.820;2022-08-03T04:54:55;2.03;;;1.37;;
70967;SDS011;58629;48.808;8.820;2022-08-03T04:57:20;1.58;;;1.48;;
70967;SDS011;58629;48.808;8.820;2022-08-03T04:59:46;2.90;;;1.90;;
70967;SDS011;58629;48.808;8.820;2022-08-03T05:02:13;2.67;;;1.65;;
70967;SDS011;58629;48.808;8.820;2022-08-03T05:04:38;1.50;;;1.40;;
70967;SDS011;58629;48.808;8.820;2022-08-03T05:07:05;1.33;;;1.23;;
70967;SDS011;58629;48.808;8.820;2022-08-03T05:09:30;1.30;;;1.20;;
70967;SDS011;58629;48.808;8.820;2022-08-03T05:11:56;1.40;;;1.30;;
70967;SDS011;58629;48.808;8.820;2022-08-03T05:14:21;1.27;;;1.17;;
70967;SDS011;58629;48.808;8.820;2022-08-03T05:16:46;1.60;;;1.50;;
70967;SDS011;58629;48.808;8.820;2022-08-03T05:19:11;1.53;;;1.43;;
70967;SDS011;58629;48.808;8.820;2022-08-03T05:21:37;2.47;;;1.93;;
70967;SDS011;58629;48.808;8.820;2022-08-03T05:24:03;2.80;;;1.90;;
70967;SDS011;58629;48.808;8.820;2022-08-03T05:26:28;2.50;;;2.10;;
70967;SDS011;58629;48.808;8.820;2022-08-03T05:28:54;2.20;;;1.95;;
70967;SDS011;58629;48.808;8.820;2022-08-03T05:31:19;2.47;;;2.20;;
70967;SDS011;58629;48.808;8.820;2022-08-03T05:33:44;3.60;;;2.70;;
70967;SDS011;58629;48.808;8.820;2022-08-03T05:36:10;3.37;;;2.70;;
70967;SDS011;58629;48.808;8.820;2022-08-03T05:38:35;2.80;;;2.60;;
70967;SDS011;58629;48.808;8.820;2022-08-03T05:41:03;2.83;;;2.53;;
70967;SDS011;58629;48.808;8.820;2022-08-03T05:43:28;2.83;;;2.55;;
70967;SDS011;58629;48.808;8.820;2022-08-03T05:45:54;3.37;;;3.03;;
70967;SDS011;58629;48.808;8.820;2022-08-03T05:48:19;3.97;;;3.50;;
70967;SDS011;58629;48.808;8.820;2022-08-03T05:50:44;3.47;;;3.17;;
70967;SDS011;58629;48.808;8.820;2022-08-03T05:53:09;3.27;;;2.97;;
70967;SDS011;58629;48.808;8.820;2022-08-03T05:55:35;3.87;;;3.23;;
70967;SDS011;58629;48.808;8.820;2022-08-03T05:58:00;4.80;;;3.30;;
70967;SDS011;58629;48.808;8.820;2022-08-03T06:00:27;4.68;;;3.40;;
70967;SDS011;58629;48.808;8.820;2022-08-03T06:02:53;3.83;;;3.30;;
70967;SDS011;58629;48.808;8.820;2022-08-03T06:05:18;3.57;;;3.23;;
70967;SDS011;58629;48.808;8.820;2022-08-03T06:07:43;5.10;;;3.17;;
70967;SDS011;58629;48.808;8.820;2022-08-03T06:10:08;4.27;;;2.70;;
70967;SDS011;58629;48.808;8.820;2022-08-03T06:12:34;3.07;;;2.77;;
70967;SDS011;58629;48.808;8.820;2022-08-03T06:15:00;3.70;;;2.70;;
70967;SDS011;58629;48.808;8.820;2022-08-03T06:17:27;3.35;;;2.60;;
70967;SDS011;58629;48.808;8.820;2022-08-03T06:19:52;2.63;;;2.43;;
70967;SDS011;58629;48.808;8.820;2022-08-03T06:22:17;3.60;;;2.47;;
70967;SDS011;58629;48.808;8.820;2022-08-03T06:24:43;2.60;;;2.40;;
70967;SDS011;58629;48.808;8.820;2022-08-03T06:27:08;3.07;;;2.50;;
70967;SDS011;58629;48.808;8.820;2022-08-03T06:29:33;2.70;;;2.50;;
70967;SDS011;58629;48.808;8.820;2022-08-03T06:31:58;3.20;;;2.47;;
70967;SDS011;58629;48.808;8.820;2022-08-03T06:34:24;2.90;;;2.40;;
70967;SDS011;58629;48.808;8.820;2022-08-03T06:36:49;2.53;;;2.20;;
70967;SDS011;58629;48.808;8.820;2022-08-03T06:39:15;3.00;;;2.50;;
70967;SDS011;58629;48.808;8.820;2022-08-03T06:41:41;2.70;;;2.50;;
70967;SDS011;58629;48.808;8.820;2022-08-03T06:44:06;2.77;;;2.57;;
70967;SDS011;58629;48.808;8.820;2022-08-03T06:46:32;3.13;;;2.60;;
70967;SDS011;58629;48.808;8.820;2022-08-03T06:48:57;3.03;;;2.73;;
70967;SDS011;58629;48.808;8.820;2022-08-03T06:51:22;4.40;;;2.80;;
70967;SDS011;58629;48.808;8.820;2022-08-03T06:53:48;3.10;;;2.80;;
70967;SDS011;58629;48.808;8.820;2022-08-03T06:56:13;2.60;;;2.30;;
70967;SDS011;58629;48.808;8.820;2022-08-03T06:58:38;2.60;;;2.40;;
70967;SDS011;58629;48.808;8.820;2022-08-03T07:01:04;2.73;;;2.50;;
70967;SDS011;58629;48.808;8.820;2022-08-03T07:03:29;3.60;;;3.00;;
70967;SDS011;58629;48.808;8.820;2022-08-03T07:05:54;3.07;;;2.50;;
70967;SDS011;58629;48.808;8.820;2022-08-03T07:08:19;3.07;;;2.77;;
70967;SDS011;58629;48.808;8.820;2022-08-03T07:10:45;2.80;;;2.60;;
70967;SDS011;58629;48.808;8.820;2022-08-03T07:13:10;2.70;;;2.50;;
70967;SDS011;58629;48.808;8.820;2022-08-03T07:15:35;4.23;;;3.03;;
70967;SDS011;58629;48.808;8.820;2022-08-03T07:18:01;3.00;;;2.70;;
70967;SDS011;58629;48.808;8.820;2022-08-03T07:20:27;3.33;;;2.63;;
70967;SDS011;58629;48.808;8.820;2022-08-03T07:22:52;2.70;;;2.50;;
70967;SDS011;58629;48.808;8.820;2022-08-03T07:25:18;2.67;;;2.47;;
70967;SDS011;58629;48.808;8.820;2022-08-03T07:27:44;2.53;;;2.30;;
70967;SDS011;58629;48.808;8.820;2022-08-03T07:30:11;2.40;;;2.20;;
70967;SDS011;58629;48.808;8.820;2022-08-03T07:32:37;2.88;;;2.38;;
70967;SDS011;58629;48.808;8.820;2022-08-03T07:35:03;3.87;;;1.90;;
70967;SDS011;58629;48.808;8.820;2022-08-03T07:37:30;2.28;;;2.08;;
70967;SDS011;58629;48.808;8.820;2022-08-03T07:39:55;2.00;;;1.80;;
70967;SDS011;58629;48.808;8.820;2022-08-03T07:42:21;1.80;;;1.70;;
70967;SDS011;58629;48.808;8.820;2022-08-03T07:44:47;1.70;;;1.60;;
70967;SDS011;58629;48.808;8.820;2022-08-03T07:47:17;1.80;;;1.60;;
70967;SDS011;58629;48.808;8.820;2022-08-03T07:49:46;1.90;;;1.80;;
70967;SDS011;58629;48.808;8.820;2022-08-03T07:52:12;2.17;;;1.90;;
70967;SDS011;58629;48.808;8.820;2022-08-03T07:54:55;1.98;;;1.80;;
70967;SDS011;58629;48.808;8.820;2022-08-03T07:57:21;1.87;;;1.53;;
70967;SDS011;58629;48.808;8.820;2022-08-03T07:59:46;2.27;;;1.50;;
70967;SDS011;58629;48.808;8.820;2022-08-03T08:02:11;1.87;;;1.73;;
70967;SDS011;58629;48.808;8.820;2022-08-03T08:04:38;1.70;;;1.60;;
70967;SDS011;58629;48.808;8.820;2022-08-03T08:07:03;1.60;;;1.50;;
70967;SDS011;58629;48.808;8.820;2022-08-03T08:09:28;1.83;;;1.70;;
70967;SDS011;58629;48.808;8.820;2022-08-03T08:11:54;1.80;;;1.70;;
70967;SDS011;58629;48.808;8.820;2022-08-03T08:14:19;1.52;;;1.42;;
70967;SDS011;58629;48.808;8.820;2022-08-03T08:16:45;1.73;;;1.63;;
70967;SDS011;58629;48.808;8.820;2022-08-03T08:19:11;1.70;;;1.60;;
70967;SDS011;58629;48.808;8.820;2022-08-03T08:21:38;1.60;;;1.50;;
70967;SDS011;58629;48.808;8.820;2022-08-03T08:24:04;1.90;;;1.80;;
70967;SDS011;58629;48.808;8.820;2022-08-03T08:26:29;3.30;;;1.80;;
70967;SDS011;58629;48.808;8.820;2022-08-03T08:28:55;1.90;;;1.80;;
70967;SDS011;58629;48.808;8.820;2022-08-03T08:31:20;2.10;;;2.00;;
70967;SDS011;58629;48.808;8.820;2022-08-03T08:33:45;3.43;;;1.83;;
70967;SDS011;58629;48.808;8.820;2022-08-03T08:36:10;2.47;;;1.80;;
70967;SDS011;58629;48.808;8.820;2022-08-03T08:38:36;3.53;;;1.97;;
70967;SDS011;58629;48.808;8.820;2022-08-03T08:41:01;1.80;;;1.70;;
70967;SDS011;58629;48.808;8.820;2022-08-03T08:43:26;1.60;;;1.50;;
70967;SDS011;58629;48.808;8.820;2022-08-03T08:45:52;2.60;;;1.60;;
70967;SDS011;58629;48.808;8.820;2022-08-03T08:48:23;2.22;;;1.52;;
70967;SDS011;58629;48.808;8.820;2022-08-03T08:50:53;2.70;;;1.60;;
70967;SDS011;58629;48.808;8.820;2022-08-03T08:53:20;2.47;;;1.60;;
70967;SDS011;58629;48.808;8.820;2022-08-03T08:55:46;3.20;;;1.75;;
70967;SDS011;58629;48.808;8.820;2022-08-03T08:58:14;2.28;;;1.50;;
70967;SDS011;58629;48.808;8.820;2022-08-03T09:00:41;1.63;;;1.52;;
70967;SDS011;58629;48.808;8.820;2022-08-03T09:03:09;1.80;;;1.70;;
70967;SDS011;58629;48.808;8.820;2022-08-03T09:05:35;1.77;;;1.42;;
70967;SDS011;58629;48.808;8.820;2022-08-03T09:08:02;1.70;;;1.60;;
70967;SDS011;58629;48.808;8.820;2022-08-03T09:10:29;1.40;;;1.30;;
70967;SDS011;58629;48.808;8.820;2022-08-03T09:12:55;2.57;;;1.60;;
70967;SDS011;58629;48.808;8.820;2022-08-03T09:17:50;2.10;;;1.50;;
70967;SDS011;58629;48.808;8.820;2022-08-03T09:20:20;1.58;;;1.48;;
70967;SDS011;58629;48.808;8.820;2022-08-03T09:22:57;1.77;;;1.67;;
70967;SDS011;58629;48.808;8.820;2022-08-03T09:25:29;1.83;;;1.30;;
70967;SDS011;58629;48.808;8.820;2022-08-03T09:28:11;1.50;;;1.40;;
70967;SDS011;58629;48.808;8.820;2022-08-03T09:30:39;2.70;;;1.60;;
70967;SDS011;58629;48.808;8.820;2022-08-03T09:33:10;1.70;;;1.60;;
70967;SDS011;58629;48.808;8.820;2022-08-03T09:35:44;1.80;;;1.70;;
70967;SDS011;58629;48.808;8.820;2022-08-03T09:38:17;2.03;;;1.57;;
70967;SDS011;58629;48.808;8.820;2022-08-03T09:40:48;1.45;;;1.38;;
70967;SDS011;58629;48.808;8.820;2022-08-03T09:43:13;1.60;;;1.50;;
70967;SDS011;58629;48.808;8.820;2022-08-03T09:45:39;1.60;;;1.50;;
70967;SDS011;58629;48.808;8.820;2022-08-03T09:50:56;1.60;;;1.50;;
70967;SDS011;58629;48.808;8.820;2022-08-03T09:53:24;1.75;;;1.60;;
70967;SDS011;58629;48.808;8.820;2022-08-03T09:55:50;1.70;;;1.60;;
70967;SDS011;58629;48.808;8.820;2022-08-03T09:58:27;1.63;;;1.50;;
70967;SDS011;58629;48.808;8.820;2022-08-03T10:03:22;1.85;;;1.60;;
70967;SDS011;58629;48.808;8.820;2022-08-03T10:05:48;3.08;;;1.70;;
70967;SDS011;58629;48.808;8.820;2022-08-03T10:08:14;2.77;;;1.70;;
70967;SDS011;58629;48.808;8.820;2022-08-03T10:10:44;1.60;;;1.50;;
70967;SDS011;58629;48.808;8.820;2022-08-03T10:13:12;2.00;;;1.90;;
70967;SDS011;58629;48.808;8.820;2022-08-03T10:15:38;1.90;;;1.80;;
70967;SDS011;58629;48.808;8.820;2022-08-03T10:18:05;1.85;;;1.75;;
70967;SDS011;58629;48.808;8.820;2022-08-03T10:20:30;1.90;;;1.80;;
70967;SDS011;58629;48.808;8.820;2022-08-03T10:23:00;1.70;;;1.60;;
70967;SDS011;58629;48.808;8.820;2022-08-03T10:25:27;2.00;;;1.80;;
70967;SDS011;58629;48.808;8.820;2022-08-03T10:27:54;1.80;;;1.70;;
70967;SDS011;58629;48.808;8.820;2022-08-03T10:30:22;2.25;;;1.70;;
70967;SDS011;58629;48.808;8.820;2022-08-03T10:32:54;2.00;;;1.90;;
70967;SDS011;58629;48.808;8.820;2022-08-03T10:35:22;1.93;;;1.83;;
70967;SDS011;58629;48.808;8.820;2022-08-03T10:37:51;1.70;;;1.60;;
70967;SDS011;58629;48.808;8.820;2022-08-03T10:40:21;2.00;;;1.90;;
70967;SDS011;58629;48.808;8.820;2022-08-03T10:42:47;1.90;;;1.80;;
70967;SDS011;58629;48.808;8.820;2022-08-03T10:45:18;2.10;;;2.00;;
70967;SDS011;58629;48.808;8.820;2022-08-03T10:47:45;2.13;;;1.93;;
70967;SDS011;58629;48.808;8.820;2022-08-03T10:50:12;2.00;;;1.90;;
70967;SDS011;58629;48.808;8.820;2022-08-03T10:52:52;2.00;;;1.90;;
70967;SDS011;58629;48.808;8.820;2022-08-03T11:01:01;2.00;;;1.90;;
70967;SDS011;58629;48.808;8.820;2022-08-03T11:03:27;2.88;;;1.63;;
70967;SDS011;58629;48.808;8.820;2022-08-03T11:05:52;1.87;;;1.77;;
70967;SDS011;58629;48.808;8.820;2022-08-03T11:11:00;2.00;;;1.90;;
70967;SDS011;58629;48.808;8.820;2022-08-03T11:13:27;1.90;;;1.80;;
70967;SDS011;58629;48.808;8.820;2022-08-03T11:15:56;1.95;;;1.85;;
70967;SDS011;58629;48.808;8.820;2022-08-03T11:18:23;1.90;;;1.80;;
70967;SDS011;58629;48.808;8.820;2022-08-03T11:20:53;2.00;;;1.90;;
70967;SDS011;58629;48.808;8.820;2022-08-03T11:23:42;1.90;;;1.80;;
70967;SDS011;58629;48.808;8.820;2022-08-03T11:26:13;2.38;;;2.28;;
70967;SDS011;58629;48.808;8.820;2022-08-03T11:28:46;1.88;;;1.77;;
70967;SDS011;58629;48.808;8.820;2022-08-03T11:34:05;1.90;;;1.80;;
70967;SDS011;58629;48.808;8.820;2022-08-03T11:36:30;2.20;;;2.10;;
70967;SDS011;58629;48.808;8.820;2022-08-03T11:39:15;2.38;;;2.20;;
70967;SDS011;58629;48.808;8.820;2022-08-03T11:41:41;3.53;;;2.03;;
70967;SDS011;58629;48.808;8.820;2022-08-03T11:44:06;2.20;;;2.10;;
70967;SDS011;58629;48.808;8.820;2022-08-03T11:46:35;2.00;;;1.90;;
70967;SDS011;58629;48.808;8.820;2022-08-03T11:49:05;2.28;;;2.17;;
70967;SDS011;58629;48.808;8.820;2022-08-03T11:51:33;1.80;;;1.70;;
70967;SDS011;58629;48.808;8.820;2022-08-03T11:53:59;2.07;;;1.90;;
70967;SDS011;58629;48.808;8.820;2022-08-03T11:56:26;2.30;;;2.10;;
70967;SDS011;58629;48.808;8.820;2022-08-03T11:58:54;2.25;;;2.00;;
70967;SDS011;58629;48.808;8.820;2022-08-03T12:01:21;2.85;;;1.90;;
70967;SDS011;58629;48.808;8.820;2022-08-03T12:03:47;2.10;;;2.00;;
70967;SDS011;58629;48.808;8.820;2022-08-03T12:06:14;2.10;;;2.00;;
70967;SDS011;58629;48.808;8.820;2022-08-03T12:08:41;2.10;;;2.00;;
70967;SDS011;58629;48.808;8.820;2022-08-03T12:11:07;2.23;;;2.13;;
70967;SDS011;58629;48.808;8.820;2022-08-03T12:13:55;1.95;;;1.85;;
70967;SDS011;58629;48.808;8.820;2022-08-03T12:16:21;2.10;;;2.00;;
70967;SDS011;58629;48.808;8.820;2022-08-03T12:19:01;2.10;;;2.00;;
70967;SDS011;58629;48.808;8.820;2022-08-03T12:21:30;3.63;;;2.13;;
70967;SDS011;58629;48.808;8.820;2022-08-03T12:23:59;2.43;;;2.00;;
70967;SDS011;58629;48.808;8.820;2022-08-03T12:26:29;2.00;;;1.90;;
70967;SDS011;58629;48.808;8.820;2022-08-03T12:29:06;1.90;;;1.80;;
70967;SDS011;58629;48.808;8.820;2022-08-03T12:31:31;2.33;;;1.77;;
70967;SDS011;58629;48.808;8.820;2022-08-03T12:34:00;2.10;;;2.00;;
70967;SDS011;58629;48.808;8.820;2022-08-03T12:36:27;2.30;;;2.20;;
70967;SDS011;58629;48.808;8.820;2022-08-03T12:39:01;2.37;;;2.13;;
70967;SDS011;58629;48.808;8.820;2022-08-03T12:41:34;2.10;;;2.00;;
70967;SDS011;58629;48.808;8.820;2022-08-03T12:44:02;2.35;;;2.10;;
70967;SDS011;58629;48.808;8.820;2022-08-03T12:46:34;2.13;;;1.92;;
70967;SDS011;58629;48.808;8.820;2022-08-03T12:49:02;2.30;;;2.10;;
70967;SDS011;58629;48.808;8.820;2022-08-03T12:51:32;2.40;;;2.20;;
70967;SDS011;58629;48.808;8.820;2022-08-03T12:54:08;2.00;;;1.90;;
70967;SDS011;58629;48.808;8.820;2022-08-03T12:56:34;3.17;;;2.63;;
70967;SDS011;58629;48.808;8.820;2022-08-03T12:59:00;2.27;;;2.07;;
70967;SDS011;58629;48.808;8.820;2022-08-03T13:01:45;2.42;;;2.28;;
70967;SDS011;58629;48.808;8.820;2022-08-03T13:04:10;2.03;;;1.93;;
70967;SDS011;58629;48.808;8.820;2022-08-03T13:06:36;2.20;;;2.10;;
70967;SDS011;58629;48.808;8.820;2022-08-03T13:09:04;3.20;;;2.17;;
70967;SDS011;58629;48.808;8.820;2022-08-03T13:11:31;2.00;;;1.90;;
70967;SDS011;58629;48.808;8.820;2022-08-03T13:13:56;2.17;;;1.98;;
70967;SDS011;58629;48.808;8.820;2022-08-03T13:16:21;2.07;;;1.87;;
70967;SDS011;58629;48.808;8.820;2022-08-03T13:18:48;2.75;;;2.33;;
70967;SDS011;58629;48.808;8.820;2022-08-03T13:21:16;2.70;;;2.50;;
70967;SDS011;58629;48.808;8.820;2022-08-03T13:23:42;2.58;;;2.33;;
70967;SDS011;58629;48.808;8.820;2022-08-03T13:26:08;2.13;;;2.03;;
70967;SDS011;58629;48.808;8.820;2022-08-03T13:28:35;2.30;;;2.10;;
70967;SDS011;58629;48.808;8.820;2022-08-03T13:31:00;2.10;;;2.00;;
70967;SDS011;58629;48.808;8.820;2022-08-03T13:33:26;2.17;;;2.07;;
70967;SDS011;58629;48.808;8.820;2022-08-03T13:35:52;2.28;;;2.17;;
70967;SDS011;58629;48.808;8.820;2022-08-03T13:38:17;2.50;;;2.30;;
70967;SDS011;58629;48.808;8.820;2022-08-03T13:40:43;2.27;;;2.07;;
70967;SDS011;58629;48.808;8.820;2022-08-03T13:43:08;3.03;;;2.50;;
70967;SDS011;58629;48.808;8.820;2022-08-03T13:45:34;3.23;;;2.60;;
70967;SDS011;58629;48.808;8.820;2022-08-03T13:47:59;2.70;;;2.50;;
70967;SDS011;58629;48.808;8.820;2022-08-03T13:50:25;2.60;;;2.40;;
70967;SDS011;58629;48.808;8.820;2022-08-03T13:52:50;2.58;;;2.47;;
70967;SDS011;58629;48.808;8.820;2022-08-03T13:55:16;2.70;;;2.50;;
70967;SDS011;58629;48.808;8.820;2022-08-03T13:57:41;2.40;;;2.30;;
70967;SDS011;58629;48.808;8.820;2022-08-03T14:00:07;2.20;;;2.10;;
70967;SDS011;58629;48.808;8.820;2022-08-03T14:02:33;2.75;;;2.55;;
70967;SDS011;58629;48.808;8.820;2022-08-03T14:04:58;2.73;;;2.53;;
70967;SDS011;58629;48.808;8.820;2022-08-03T14:07:23;2.40;;;2.10;;
70967;SDS011;58629;48.808;8.820;2022-08-03T14:09:49;2.63;;;2.20;;
70967;SDS011;58629;48.808;8.820;2022-08-03T14:12:14;2.73;;;2.53;;
70967;SDS011;58629;48.808;8.820;2022-08-03T14:14:39;2.30;;;2.20;;
70967;SDS011;58629;48.808;8.820;2022-08-03T14:17:05;2.60;;;2.33;;
70967;SDS011;58629;48.808;8.820;2022-08-03T14:19:30;2.83;;;2.07;;
70967;SDS011;58629;48.808;8.820;2022-08-03T14:21:56;2.47;;;2.00;;
70967;SDS011;58629;48.808;8.820;2022-08-03T14:24:21;2.03;;;1.93;;
70967;SDS011;58629;48.808;8.820;2022-08-03T14:26:47;2.33;;;2.23;;
70967;SDS011;58629;48.808;8.820;2022-08-03T14:29:12;2.70;;;2.50;;
70967;SDS011;58629;48.808;8.820;2022-08-03T14:31:37;2.97;;;2.33;;
70967;SDS011;58629;48.808;8.820;2022-08-03T14:34:03;2.47;;;2.33;;
70967;SDS011;58629;48.808;8.820;2022-08-03T14:36:28;2.23;;;2.13;;
70967;SDS011;58629;48.808;8.820;2022-08-03T14:38:53;2.60;;;2.40;;
70967;SDS011;58629;48.808;8.820;2022-08-03T14:41:18;2.27;;;2.10;;
70967;SDS011;58629;48.808;8.820;2022-08-03T14:43:44;2.50;;;2.30;;
70967;SDS011;58629;48.808;8.820;2022-08-03T14:46:09;2.50;;;2.30;;
70967;SDS011;58629;48.808;8.820;2022-08-03T14:48:34;1.97;;;1.87;;
70967;SDS011;58629;48.808;8.820;2022-08-03T14:51:00;2.20;;;2.10;;
70967;SDS011;58629;48.808;8.820;2022-08-03T14:53:25;2.03;;;1.93;;
70967;SDS011;58629;48.808;8.820;2022-08-03T14:55:52;1.88;;;1.77;;
70967;SDS011;58629;48.808;8.820;2022-08-03T14:58:18;2.60;;;2.40;;
70967;SDS011;58629;48.808;8.820;2022-08-03T15:00:44;2.50;;;2.40;;
70967;SDS011;58629;48.808;8.820;2022-08-03T15:03:09;2.30;;;2.20;;
70967;SDS011;58629;48.808;8.820;2022-08-03T15:05:34;2.27;;;2.17;;
70967;SDS011;58629;48.808;8.820;2022-08-03T15:08:00;2.13;;;1.90;;
70967;SDS011;58629;48.808;8.820;2022-08-03T15:10:25;1.90;;;1.80;;
70967;SDS011;58629;48.808;8.820;2022-08-03T15:12:50;2.13;;;2.03;;
70967;SDS011;58629;48.808;8.820;2022-08-03T15:15:16;2.40;;;2.30;;
70967;SDS011;58629;48.808;8.820;2022-08-03T15:17:41;2.20;;;2.10;;
70967;SDS011;58629;48.808;8.820;2022-08-03T15:20:06;2.10;;;2.00;;
70967;SDS011;58629;48.808;8.820;2022-08-03T15:22:33;2.67;;;2.10;;